Time;durP1;ratioP1;P1;durP2;ratioP2;P2;SDS_P1;SDS_P2;PMS_P1;PMS_P2;Temp;Humidity;BMP_temperature;BMP_pressure;BME280_temperature;BME280_humidity;BME280_pressure;Samples;Min_cycle;Max_cycle;Signal;HPM_P1;HPM_P2
2021/09/07 00:01:41;;;;;;;6.32;4.57;;;;;;;22.57;63.59;101650.06;6057951;23;20571;-69
2021/09/07 00:04:06;;;;;;;6.18;4.60;;;;;;;22.57;63.19;101651.94;6056744;23;20090;-70
2021/09/07 00:06:32;;;;;;;6.80;4.35;;;;;;;22.57;63.22;101647.31;6058755;23;20010;-70
2021/09/07 00:08:58;;;;;;;7.30;4.32;;;;;;;22.57;63.35;101649.19;6008644;23;20025;-70
2021/09/07 00:11:23;;;;;;;6.57;4.50;;;;;;;22.56;63.02;101651.09;6057815;23;20010;-70
2021/09/07 00:13:49;;;;;;;5.25;4.20;;;;;;;22.56;62.97;101644.81;6056655;23;20644;-70
2021/09/07 00:16:14;;;;;;;6.13;4.03;;;;;;;22.56;62.97;101647.53;6031807;23;20003;-70
2021/09/07 00:18:40;;;;;;;6.82;4.60;;;;;;;22.56;62.95;101651.09;6057050;23;20378;-70
2021/09/07 00:21:05;;;;;;;6.28;4.22;;;;;;;22.55;63.16;101643.13;6030163;23;20380;-70
2021/09/07 00:23:31;;;;;;;5.03;3.75;;;;;;;22.55;62.86;101643.97;6055047;23;20382;-70
2021/09/07 00:25:57;;;;;;;5.72;4.03;;;;;;;22.52;63.06;101641.69;6031456;23;20074;-70
2021/09/07 00:28:22;;;;;;;5.72;3.92;;;;;;;22.55;62.80;101643.13;6057455;23;20038;-70
2021/09/07 00:30:48;;;;;;;5.93;4.15;;;;;;;22.55;63.10;101645.88;6030381;23;20054;-70
2021/09/07 00:33:13;;;;;;;5.97;4.15;;;;;;;22.54;63.01;101645.03;6056308;23;20022;-70
2021/09/07 00:35:39;;;;;;;5.63;4.20;;;;;;;22.53;62.78;101637.06;6057292;23;20011;-70
2021/09/07 00:38:05;;;;;;;5.22;3.85;;;;;;;22.53;62.76;101639.78;6057001;23;20007;-69
2021/09/07 00:40:31;;;;;;;5.72;4.07;;;;;;;22.52;62.76;101633.47;6058308;23;20477;-70
2021/09/07 00:42:56;;;;;;;7.22;4.38;;;;;;;22.53;62.84;101635.13;6057575;23;20007;-70
2021/09/07 00:45:22;;;;;;;7.40;4.47;;;;;;;22.53;62.69;101645.28;6008116;23;20007;-70
2021/09/07 00:47:48;;;;;;;6.45;4.20;;;;;;;22.53;62.74;101634.31;6055565;23;20022;-70
2021/09/07 00:50:14;;;;;;;6.40;4.20;;;;;;;22.53;62.75;101639.78;6029562;23;20481;-70
2021/09/07 00:52:41;;;;;;;5.50;4.00;;;;;;;22.51;62.61;101631.78;6029894;23;20090;-70
2021/09/07 00:55:08;;;;;;;5.45;4.05;;;;;;;22.52;62.54;101633.47;6032426;23;20007;-70
2021/09/07 00:57:34;;;;;;;6.28;4.20;;;;;;;22.51;62.30;101630.97;6030750;23;20013;-70
2021/09/07 01:00:02;;;;;;;6.07;4.15;;;;;;;22.52;62.49;101635.34;6030912;23;20006;-69
2021/09/07 01:02:28;;;;;;;6.47;3.92;;;;;;;22.51;62.33;101631.78;6058792;23;20007;-70
2021/09/07 01:04:53;;;;;;;5.97;4.18;;;;;;;22.51;62.55;101631.78;6031692;23;20017;-70
2021/09/07 01:07:19;;;;;;;6.22;4.00;;;;;;;22.51;62.50;101633.69;6060659;23;20002;-70
2021/09/07 01:09:45;;;;;;;4.97;3.88;;;;;;;22.48;62.39;101615.00;6033296;23;20086;-70
2021/09/07 01:12:11;;;;;;;5.45;4.32;;;;;;;22.49;61.98;101622.13;6031088;23;20014;-70
2021/09/07 01:14:39;;;;;;;4.90;3.58;;;;;;;22.50;62.33;101618.34;6032200;23;20104;-70
2021/09/07 01:17:16;;;;;;;5.13;3.75;;;;;;;22.50;62.06;101615.59;6056247;23;20322;-70
2021/09/07 01:19:45;;;;;;;5.13;3.85;;;;;;;22.49;62.03;101617.50;6029070;23;20059;-70
2021/09/07 01:22:11;;;;;;;5.25;3.60;;;;;;;22.49;61.76;101617.50;6007221;23;20360;-69
2021/09/07 01:24:36;;;;;;;6.15;3.72;;;;;;;22.47;62.01;101614.16;6057376;23;20006;-70
2021/09/07 01:27:05;;;;;;;5.97;4.00;;;;;;;22.50;61.78;101610.13;6055045;23;20007;-70
2021/09/07 01:29:40;;;;;;;5.82;3.78;;;;;;;22.49;61.90;101597.47;6029540;23;20007;-69
2021/09/07 01:32:08;;;;;;;5.32;3.95;;;;;;;22.48;61.95;101596.63;6055712;23;20010;-70
2021/09/07 01:34:34;;;;;;;4.88;3.75;;;;;;;22.47;61.99;101596.88;6030380;23;20002;-69
2021/09/07 01:37:00;;;;;;;6.32;4.03;;;;;;;22.48;62.10;101604.84;6007904;23;20081;-70
2021/09/07 01:39:26;;;;;;;4.78;3.85;;;;;;;22.48;62.00;101609.50;6055371;23;20374;-70
2021/09/07 01:41:53;;;;;;;6.30;4.07;;;;;;;22.47;61.69;101602.38;6030594;23;20007;-70
2021/09/07 01:44:19;;;;;;;6.22;4.15;;;;;;;22.47;62.01;101594.16;6031893;23;20042;-70
2021/09/07 01:46:45;;;;;;;6.68;4.10;;;;;;;22.46;61.83;101597.94;6028180;23;20392;-70
2021/09/07 01:49:12;;;;;;;5.32;4.22;;;;;;;22.46;61.79;101604.25;6057175;23;20002;-70
2021/09/07 01:51:39;;;;;;;6.00;4.20;;;;;;;22.46;61.66;101601.50;6058043;23;20003;-70
2021/09/07 01:54:06;;;;;;;5.32;3.90;;;;;;;22.46;61.94;101592.47;6057630;23;20075;-71
2021/09/07 01:56:32;;;;;;;7.40;4.28;;;;;;;22.46;61.52;101576.00;6058531;23;20577;-70
2021/09/07 01:58:57;;;;;;;6.18;4.10;;;;;;;22.46;61.57;101589.72;6060818;23;20014;-70
2021/09/07 02:01:23;;;;;;;5.22;3.40;;;;;;;22.45;61.33;101582.56;6058590;23;20007;-70
2021/09/07 02:03:49;;;;;;;6.20;4.00;;;;;;;22.45;61.54;101577.09;6060759;23;20061;-70
2021/09/07 02:06:15;;;;;;;5.13;3.42;;;;;;;22.45;61.39;101571.63;6059629;23;20887;-70
2021/09/07 02:08:41;;;;;;;5.57;3.88;;;;;;;22.45;61.26;101568.88;6035566;23;20078;-70
2021/09/07 02:11:07;;;;;;;6.05;4.05;;;;;;;22.45;61.59;101571.63;6059159;23;20077;-70
2021/09/07 02:13:32;;;;;;;6.03;3.88;;;;;;;22.43;61.16;101569.09;6035349;23;20011;-69
2021/09/07 02:15:58;;;;;;;5.95;3.53;;;;;;;22.42;61.48;101566.63;6060333;23;20006;-70
2021/09/07 02:18:24;;;;;;;5.63;3.40;;;;;;;22.42;61.15;101566.63;6060583;23;20086;-70
2021/09/07 02:20:49;;;;;;;6.28;3.50;;;;;;;22.43;61.20;101562.78;6058932;23;20007;-69
2021/09/07 02:23:15;;;;;;;5.18;3.78;;;;;;;22.43;61.14;101562.78;6059026;23;20006;-70
2021/09/07 02:25:41;;;;;;;5.32;3.55;;;;;;;22.43;61.07;101560.06;6009512;23;20042;-69
2021/09/07 02:28:06;;;;;;;5.78;3.40;;;;;;;22.43;61.08;101568.28;6060523;23;20013;-69
2021/09/07 02:30:32;;;;;;;5.53;3.45;;;;;;;22.42;61.15;101563.88;6034167;23;20058;-69
2021/09/07 02:32:59;;;;;;;6.25;3.88;;;;;;;22.39;60.97;101552.31;6033616;23;20022;-70
2021/09/07 02:35:28;;;;;;;5.03;3.38;;;;;;;22.42;61.13;101563.88;6034614;23;20097;-70
2021/09/07 02:37:54;;;;;;;5.22;3.67;;;;;;;22.41;61.00;101559.44;6059395;23;20038;-70
2021/09/07 02:40:20;;;;;;;6.65;4.13;;;;;;;22.41;60.64;101562.19;6059387;23;20006;-70
2021/09/07 02:42:45;;;;;;;7.70;4.20;;;;;;;22.37;60.95;101553.59;6009706;23;20063;-70
2021/09/07 02:45:11;;;;;;;5.35;3.72;;;;;;;22.40;60.93;101558.63;6032666;23;20053;-70
2021/09/07 02:47:40;;;;;;;5.78;3.47;;;;;;;22.39;60.69;101562.44;6032927;23;20081;-70
2021/09/07 02:50:16;;;;;;;4.72;3.80;;;;;;;22.41;60.80;101556.72;6056420;23;20091;-70
2021/09/07 02:52:42;;;;;;;6.47;4.20;;;;;;;22.39;61.08;101557.78;6031231;23;20034;-70
2021/09/07 02:55:08;;;;;;;6.05;3.88;;;;;;;22.39;60.69;101546.00;6030912;23;20034;-70
2021/09/07 02:57:34;;;;;;;6.00;3.60;;;;;;;22.39;60.99;101546.81;6035671;23;20065;-70
2021/09/07 03:00:00;;;;;;;4.95;3.53;;;;;;;22.36;60.71;101540.97;6035966;23;20425;-70
2021/09/07 03:02:25;;;;;;;5.60;3.83;;;;;;;22.38;60.54;101556.09;6061053;23;20007;-70
2021/09/07 03:04:51;;;;;;;7.07;4.20;;;;;;;22.38;60.73;101553.34;6035166;23;20009;-71
2021/09/07 03:07:19;;;;;;;6.18;4.03;;;;;;;22.36;60.54;101547.31;6013649;23;20006;-69
2021/09/07 03:09:45;;;;;;;5.35;3.85;;;;;;;22.38;60.60;101553.34;6061331;23;20030;-70
2021/09/07 03:12:11;;;;;;;6.20;4.00;;;;;;;22.38;60.63;101547.88;6036472;23;20070;-70
2021/09/07 03:14:37;;;;;;;6.68;4.15;;;;;;;22.37;60.46;101548.13;6035726;23;20003;-70
2021/09/07 03:17:03;;;;;;;5.18;3.45;;;;;;;22.38;60.45;101550.63;6035093;23;20421;-70
2021/09/07 03:19:28;;;;;;;5.80;3.72;;;;;;;22.38;60.34;101549.78;6060158;23;20002;-70
2021/09/07 03:21:54;;;;;;;5.95;4.03;;;;;;;22.34;60.43;101538.47;6034931;23;20018;-70
2021/09/07 03:24:20;;;;;;;5.05;3.72;;;;;;;22.37;60.62;101542.66;6036285;23;20006;-70
2021/09/07 03:26:45;;;;;;;6.07;4.35;;;;;;;22.36;60.44;101536.34;6034870;23;20017;-70
2021/09/07 03:29:11;;;;;;;7.43;4.50;;;;;;;22.34;60.52;101543.94;6035833;23;20066;-70
2021/09/07 03:31:37;;;;;;;7.35;4.07;;;;;;;22.36;60.37;101547.31;6059351;23;20035;-70
2021/09/07 03:34:03;;;;;;;6.05;4.03;;;;;;;22.36;60.37;101544.56;6034867;23;20381;-71
2021/09/07 03:36:29;;;;;;;7.78;4.25;;;;;;;22.36;60.34;101544.56;6059859;23;20006;-70
2021/09/07 03:38:54;;;;;;;7.75;4.30;;;;;;;22.36;60.14;101539.09;6036331;23;20094;-70
2021/09/07 03:41:20;;;;;;;8.77;4.53;;;;;;;22.36;60.14;101539.09;6061284;23;20026;-70
2021/09/07 03:43:46;;;;;;;6.28;3.92;;;;;;;22.34;60.30;101530.25;6060527;23;20424;-70
2021/09/07 03:46:11;;;;;;;6.00;3.75;;;;;;;22.36;60.22;101530.88;6033118;23;20039;-70
2021/09/07 03:48:37;;;;;;;6.00;4.07;;;;;;;22.34;60.14;101522.03;6035354;23;20731;-69
2021/09/07 03:51:03;;;;;;;6.47;3.72;;;;;;;22.36;60.36;101525.38;6060456;23;20429;-69
2021/09/07 03:53:30;;;;;;;7.13;4.35;;;;;;;22.36;59.99;101519.91;6011255;23;20113;-70
2021/09/07 03:55:56;;;;;;;8.00;4.13;;;;;;;22.35;59.81;101523.69;6058618;23;20013;-70
2021/09/07 03:58:21;;;;;;;8.35;4.28;;;;;;;22.35;60.00;101522.88;6059778;23;20337;-70
2021/09/07 04:00:47;;;;;;;6.57;4.45;;;;;;;22.33;59.81;101514.91;6061468;23;20007;-70
2021/09/07 04:03:14;;;;;;;6.78;4.15;;;;;;;22.35;60.02;101515.47;6061617;23;20014;-70
2021/09/07 04:05:40;;;;;;;7.07;4.32;;;;;;;22.34;59.90;101513.00;6060880;23;20018;-70
2021/09/07 04:08:05;;;;;;;8.93;4.60;;;;;;;22.35;60.28;101517.38;6061840;23;20322;-71
2021/09/07 04:10:31;;;;;;;6.65;3.97;;;;;;;22.34;59.90;101505.59;6060700;23;20035;-72
2021/09/07 04:12:57;;;;;;;7.47;4.55;;;;;;;22.31;59.86;101497.84;6059744;23;20025;-71
2021/09/07 04:15:22;;;;;;;6.22;4.40;;;;;;;22.35;60.03;101506.44;6034622;23;20003;-70
2021/09/07 04:17:48;;;;;;;6.45;4.65;;;;;;;22.33;60.04;101514.91;6035148;23;20841;-70
2021/09/07 04:20:13;;;;;;;6.63;3.88;;;;;;;22.33;60.10;101503.94;6035275;23;20450;-70
2021/09/07 04:22:39;;;;;;;9.68;4.43;;;;;;;22.33;59.95;101500.34;6060445;23;20030;-70
2021/09/07 04:25:05;;;;;;;8.00;4.72;;;;;;;22.33;59.91;101498.47;6012269;23;20078;-72
2021/09/07 04:27:31;;;;;;;6.57;4.28;;;;;;;22.33;60.18;101497.59;6035410;23;20045;-70
2021/09/07 04:29:56;;;;;;;8.07;4.90;;;;;;;22.33;59.94;101495.72;6059203;23;20554;-73
2021/09/07 04:32:22;;;;;;;8.70;4.95;;;;;;;22.32;60.18;101496.78;6034571;23;20010;-71
2021/09/07 04:34:48;;;;;;;7.28;4.53;;;;;;;22.33;59.92;101490.25;6060097;23;20014;-71
2021/09/07 04:37:13;;;;;;;8.98;5.30;;;;;;;22.32;60.23;101488.56;6060921;23;20337;-70
2021/09/07 04:39:39;;;;;;;9.60;5.13;;;;;;;22.31;60.17;101489.63;6035211;23;20017;-70
2021/09/07 04:42:05;;;;;;;7.35;4.85;;;;;;;22.32;60.25;101484.97;6061034;23;20003;-70
2021/09/07 04:44:31;;;;;;;7.03;4.63;;;;;;;22.30;60.24;101487.94;6034912;23;20336;-71
2021/09/07 04:46:57;;;;;;;9.25;5.05;;;;;;;22.29;60.25;101477.25;6059104;23;20094;-71
2021/09/07 04:49:23;;;;;;;7.43;4.90;;;;;;;22.31;60.28;101475.94;6059490;23;20073;-71
2021/09/07 04:51:48;;;;;;;9.43;5.38;;;;;;;22.31;60.19;101478.69;6061270;23;20014;-71
2021/09/07 04:54:14;;;;;;;9.52;4.78;;;;;;;22.29;60.11;101478.06;6033893;23;20007;-71
2021/09/07 04:56:40;;;;;;;11.45;5.88;;;;;;;22.31;60.24;101481.41;6034757;23;20081;-71
2021/09/07 04:59:05;;;;;;;10.48;5.60;;;;;;;22.29;60.36;101483.56;6032575;23;20007;-71
2021/09/07 05:01:31;;;;;;;8.60;5.03;;;;;;;22.31;60.29;101477.84;6034078;23;20003;-71
2021/09/07 05:03:56;;;;;;;9.30;5.35;;;;;;;22.31;60.66;101477.84;6034204;23;20015;-71
2021/09/07 05:06:22;;;;;;;9.60;5.75;;;;;;;22.31;60.58;101481.41;6059030;23;20011;-71
2021/09/07 05:08:47;;;;;;;10.95;6.07;;;;;;;22.30;60.60;101477.00;6034651;23;20134;-71
2021/09/07 05:11:13;;;;;;;9.38;5.22;;;;;;;22.30;60.61;101482.47;6060650;23;20345;-71
2021/09/07 05:13:39;;;;;;;11.18;5.45;;;;;;;22.30;60.62;101487.94;6060057;23;20014;-70
2021/09/07 05:16:04;;;;;;;11.50;5.75;;;;;;;22.29;60.97;101485.47;6059803;23;20011;-70
2021/09/07 05:18:30;;;;;;;8.68;5.75;;;;;;;22.27;60.48;101485.69;6058784;23;20010;-71
2021/09/07 05:20:56;;;;;;;10.90;5.95;;;;;;;22.30;60.46;101490.69;6035295;23;20045;-70
2021/09/07 05:23:21;;;;;;;8.48;5.35;;;;;;;22.31;60.48;101494.28;6034790;23;20033;-71
2021/09/07 05:25:47;;;;;;;8.48;5.85;;;;;;;22.29;60.51;101494.50;6060180;23;20013;-71
2021/09/07 05:28:12;;;;;;;8.90;5.50;;;;;;;22.30;60.55;101492.59;6059013;23;20025;-71
2021/09/07 05:30:38;;;;;;;9.02;5.82;;;;;;;22.29;60.54;101497.25;6033133;23;20587;-68
2021/09/07 05:33:06;;;;;;;10.70;6.05;;;;;;;22.29;60.54;101497.25;6060675;23;20077;-70
2021/09/07 05:35:32;;;;;;;9.07;5.85;;;;;;;22.30;60.79;101500.81;6058242;23;20087;-71
2021/09/07 05:37:57;;;;;;;9.23;5.53;;;;;;;22.31;60.62;101494.28;6034940;23;20066;-72
2021/09/07 05:40:23;;;;;;;10.82;6.35;;;;;;;22.29;60.44;101489.03;6060154;23;20042;-72
2021/09/07 05:42:49;;;;;;;11.05;6.20;;;;;;;22.29;60.34;101488.19;6035905;23;20042;-72
2021/09/07 05:45:16;;;;;;;11.23;5.85;;;;;;;22.29;60.36;101489.03;6058759;23;20046;-72
2021/09/07 05:47:42;;;;;;;12.90;7.03;;;;;;;22.28;60.64;101490.13;6033343;23;20407;-72
2021/09/07 05:50:09;;;;;;;10.23;6.18;;;;;;;22.29;60.46;101486.28;6033720;23;20066;-70
2021/09/07 05:52:34;;;;;;;10.25;6.07;;;;;;;22.28;60.75;101490.13;6035040;23;20011;-71
2021/09/07 05:55:03;;;;;;;8.45;5.45;;;;;;;22.27;60.40;101491.16;6058795;23;20010;-71
2021/09/07 05:57:29;;;;;;;11.68;6.10;;;;;;;22.29;60.36;101485.47;6033928;23;20037;-71
2021/09/07 05:59:55;;;;;;;9.77;6.43;;;;;;;22.28;60.20;101484.63;6059977;23;20082;-71
2021/09/07 06:02:23;;;;;;;10.75;6.15;;;;;;;22.28;60.48;101487.38;6056341;23;20010;-71
2021/09/07 06:04:49;;;;;;;8.80;5.55;;;;;;;22.25;59.99;101485.06;6035008;23;20030;-69
2021/09/07 06:07:14;;;;;;;10.68;6.00;;;;;;;22.28;59.99;101490.13;6034579;23;20010;-70
2021/09/07 06:09:40;;;;;;;9.48;5.88;;;;;;;22.28;60.28;101483.78;6032629;23;20006;-70
2021/09/07 06:12:06;;;;;;;8.57;5.72;;;;;;;22.28;60.06;101489.25;6059013;23;20006;-70
2021/09/07 06:14:33;;;;;;;8.35;5.78;;;;;;;22.26;60.11;101484.03;6058985;23;20034;-70
2021/09/07 06:16:59;;;;;;;9.70;5.68;;;;;;;22.27;59.97;101482.94;6034061;23;20006;-70
2021/09/07 06:19:28;;;;;;;9.43;5.75;;;;;;;22.24;60.02;101477.13;6059959;23;20003;-70
2021/09/07 06:21:53;;;;;;;10.18;5.90;;;;;;;22.27;60.14;101490.34;6035331;23;20026;-70
2021/09/07 06:24:19;;;;;;;10.10;6.20;;;;;;;22.27;59.73;101488.44;6034856;23;20026;-70
2021/09/07 06:26:45;;;;;;;9.20;6.07;;;;;;;22.28;60.00;101484.63;6060222;23;20066;-70
2021/09/07 06:29:11;;;;;;;9.52;6.13;;;;;;;22.28;60.33;101487.38;6060238;23;20058;-70
2021/09/07 06:31:36;;;;;;;8.65;6.10;;;;;;;22.30;59.97;101492.59;6034061;23;20013;-70
2021/09/07 06:34:03;;;;;;;8.95;6.10;;;;;;;22.30;60.21;101493.44;6034497;23;20058;-70
2021/09/07 06:36:29;;;;;;;9.25;6.03;;;;;;;22.30;60.05;101487.94;6010493;23;20038;-70
2021/09/07 06:38:54;;;;;;;7.70;5.88;;;;;;;22.31;60.10;101492.38;6060320;23;20014;-70
2021/09/07 06:41:20;;;;;;;10.13;5.93;;;;;;;22.32;59.76;101487.72;6033991;23;20006;-70
2021/09/07 06:43:45;;;;;;;9.98;6.03;;;;;;;22.29;60.14;101489.03;6031732;23;20108;-70
2021/09/07 06:46:11;;;;;;;9.85;6.57;;;;;;;22.32;59.84;101496.78;6031054;23;20073;-70
2021/09/07 06:48:37;;;;;;;10.60;6.32;;;;;;;22.34;59.66;101491.91;6011187;23;20007;-71
2021/09/07 06:51:02;;;;;;;10.85;6.40;;;;;;;22.36;60.01;101492.50;6009482;23;20437;-71
2021/09/07 06:53:28;;;;;;;9.10;6.38;;;;;;;22.38;59.88;101487.59;6010508;23;20010;-71
2021/09/07 06:55:54;;;;;;;9.23;5.88;;;;;;;22.43;59.60;101497.03;6058979;23;20348;-71
2021/09/07 06:58:20;;;;;;;10.32;6.47;;;;;;;22.43;59.54;101492.38;6034416;23;20006;-71
2021/09/07 07:00:45;;;;;;;8.70;6.10;;;;;;;22.46;59.75;101491.06;6059328;23;20069;-71
2021/09/07 07:03:11;;;;;;;10.07;6.20;;;;;;;22.51;59.47;101482.97;6034598;23;20026;-71
2021/09/07 07:05:36;;;;;;;12.13;6.18;;;;;;;22.57;59.31;101490.22;6059772;23;20010;-71
2021/09/07 07:08:03;;;;;;;8.43;5.78;;;;;;;22.61;58.91;101486.78;6034497;23;20489;-71
2021/09/07 07:10:29;;;;;;;9.63;5.97;;;;;;;22.65;58.85;101494.53;6034480;23;20018;-71
2021/09/07 07:12:55;;;;;;;8.07;6.03;;;;;;;22.66;58.73;101499.78;6034443;23;20054;-71
2021/09/07 07:15:20;;;;;;;9.18;5.95;;;;;;;22.70;58.67;101487.25;6059271;23;20010;-71
2021/09/07 07:17:46;;;;;;;9.52;6.32;;;;;;;22.70;58.67;101487.25;6034283;23;20018;-70
2021/09/07 07:20:12;;;;;;;9.05;6.13;;;;;;;22.76;58.69;101485.47;6034661;23;20533;-71
2021/09/07 07:22:38;;;;;;;10.50;6.43;;;;;;;22.83;58.40;101495.22;6059431;23;20007;-71
2021/09/07 07:25:04;;;;;;;8.50;5.75;;;;;;;22.91;58.19;101495.94;6059365;23;20013;-71
2021/09/07 07:27:30;;;;;;;8.38;5.90;;;;;;;22.94;58.38;101499.06;6033751;23;20491;-71
2021/09/07 07:29:56;;;;;;;9.77;6.68;;;;;;;22.92;58.29;101492.16;6034524;23;20451;-71
2021/09/07 07:32:21;;;;;;;10.93;6.88;;;;;;;22.92;58.39;101494.88;6034731;23;20007;-71
2021/09/07 07:34:47;;;;;;;12.50;7.50;;;;;;;22.91;58.63;101493.22;6033932;23;20013;-71
2021/09/07 07:37:13;;;;;;;12.82;7.47;;;;;;;22.89;58.64;101489.84;6033701;23;20013;-71
2021/09/07 07:39:39;;;;;;;15.65;8.20;;;;;;;22.87;58.84;101492.03;6058485;23;20010;-71
2021/09/07 07:42:05;;;;;;;13.95;7.53;;;;;;;22.86;59.04;101490.34;6060455;23;20010;-71
2021/09/07 07:44:30;;;;;;;12.80;7.35;;;;;;;22.82;59.32;101485.34;6035535;23;20007;-71
2021/09/07 07:46:56;;;;;;;12.90;7.80;;;;;;;22.80;59.72;101484.75;6035912;23;20034;-70
2021/09/07 07:49:21;;;;;;;15.32;8.20;;;;;;;22.79;59.75;101479.53;6036029;23;20042;-71
2021/09/07 07:51:47;;;;;;;14.40;8.55;;;;;;;22.80;59.46;101475.69;6036579;23;20010;-70
2021/09/07 07:54:13;;;;;;;14.38;8.32;;;;;;;22.92;59.50;101475.69;6036042;23;20532;-70
2021/09/07 07:56:39;;;;;;;13.35;8.32;;;;;;;22.96;59.26;101476.88;6036003;23;20011;-70
2021/09/07 07:59:05;;;;;;;15.77;8.18;;;;;;;22.96;59.33;101479.59;6035923;23;20444;-71
2021/09/07 08:01:31;;;;;;;13.55;8.68;;;;;;;22.96;59.48;101474.97;6061483;23;20003;-69
2021/09/07 08:03:57;;;;;;;18.42;9.18;;;;;;;22.92;59.99;101470.22;6035432;23;20411;-70
2021/09/07 08:06:23;;;;;;;17.33;9.23;;;;;;;22.89;59.92;101465.19;6035646;23;20013;-70
2021/09/07 08:08:50;;;;;;;18.80;8.63;;;;;;;22.89;59.93;101467.91;6035911;23;20017;-71
2021/09/07 08:11:16;;;;;;;14.25;7.95;;;;;;;22.88;60.27;101466.25;6059752;23;20003;-71
2021/09/07 08:13:42;;;;;;;13.40;8.48;;;;;;;22.89;60.33;101468.78;6035597;23;20508;-70
2021/09/07 08:16:08;;;;;;;13.88;8.15;;;;;;;22.88;60.27;101460.78;6011585;23;20049;-71
2021/09/07 08:18:33;;;;;;;14.57;8.70;;;;;;;22.86;60.37;101462.94;6036261;23;20341;-71
2021/09/07 08:20:59;;;;;;;16.13;8.20;;;;;;;22.86;60.32;101461.00;6061423;23;20030;-70
2021/09/07 08:23:25;;;;;;;17.50;8.32;;;;;;;22.86;60.46;101460.19;6061351;23;20023;-70
2021/09/07 08:25:51;;;;;;;15.38;7.78;;;;;;;22.86;60.40;101455.53;6060521;23;20073;-70
2021/09/07 08:28:17;;;;;;;15.68;8.40;;;;;;;22.86;60.26;101460.19;6036589;23;20023;-71
2021/09/07 08:30:42;;;;;;;15.25;8.10;;;;;;;22.86;60.18;101461.00;6035818;23;20086;-71
2021/09/07 08:33:18;;;;;;;12.93;8.20;;;;;;;22.87;60.13;101461.88;6061552;23;20014;-71
2021/09/07 08:35:43;;;;;;;18.05;8.95;;;;;;;22.86;60.18;101465.66;6035603;23;20007;-71
2021/09/07 08:38:10;;;;;;;18.10;9.60;;;;;;;22.84;60.04;101454.97;6036221;23;20010;-71
2021/09/07 08:40:36;;;;;;;14.68;8.55;;;;;;;22.85;60.17;101450.31;6061029;23;20006;-70
2021/09/07 08:43:03;;;;;;;14.27;7.90;;;;;;;22.85;60.27;101455.78;6012456;23;20003;-71
2021/09/07 08:45:29;;;;;;;15.30;8.68;;;;;;;22.86;60.46;101446.47;6035347;23;20014;-70
2021/09/07 08:47:59;;;;;;;16.70;8.85;;;;;;;22.86;60.37;101450.03;6036293;23;20006;-70
2021/09/07 08:50:25;;;;;;;15.48;8.85;;;;;;;22.81;59.95;101434.34;6035479;23;20006;-70
2021/09/07 08:52:55;;;;;;;15.35;8.70;;;;;;;22.86;60.17;101452.78;6035810;23;20003;-70
2021/09/07 08:55:21;;;;;;;16.27;8.18;;;;;;;22.84;60.16;101444.00;6035109;23;20007;-71
2021/09/07 08:57:46;;;;;;;15.73;8.52;;;;;;;22.86;60.28;101443.72;6060985;23;20035;-71
2021/09/07 09:00:12;;;;;;;16.05;8.07;;;;;;;22.83;60.12;101439.56;6035880;23;20330;-70
2021/09/07 09:02:43;;;;;;;15.20;8.80;;;;;;;22.86;60.25;101443.72;6061083;23;20009;-70
2021/09/07 09:05:09;;;;;;;15.30;8.30;;;;;;;22.82;60.29;101433.25;6012142;23;20043;-70
2021/09/07 09:07:35;;;;;;;14.73;8.30;;;;;;;22.81;60.51;101433.47;6035625;23;20007;-71
2021/09/07 09:10:01;;;;;;;15.48;8.60;;;;;;;22.83;60.37;101429.41;6035400;23;20006;-71
2021/09/07 09:12:29;;;;;;;15.82;9.27;;;;;;;22.84;60.33;101433.03;6035988;23;20393;-71
2021/09/07 09:14:54;;;;;;;18.35;9.05;;;;;;;22.83;60.61;101420.38;6035589;23;20007;-70
2021/09/07 09:17:28;;;;;;;15.00;8.48;;;;;;;22.82;60.73;101419.53;6035920;23;20022;-71
2021/09/07 09:20:01;;;;;;;15.13;8.70;;;;;;;22.84;60.81;101419.31;6061151;23;20027;-70
2021/09/07 09:22:50;;;;;;;14.15;8.07;;;;;;;22.83;60.78;101415.72;6012476;23;20392;-71
2021/09/07 09:27:48;;;;;;;14.93;8.77;;;;;;;22.84;60.94;101433.03;6060611;23;20010;-71
2021/09/07 09:30:14;;;;;;;18.80;9.35;;;;;;;22.84;60.73;101427.53;6011435;23;20007;-71
2021/09/07 09:32:50;;;;;;;15.77;8.80;;;;;;;22.85;60.81;101422.88;6035783;23;20007;-71
2021/09/07 09:35:16;;;;;;;14.13;9.18;;;;;;;22.86;60.97;101424.53;6034043;23;20531;-71
2021/09/07 09:38:03;;;;;;;15.75;8.95;;;;;;;22.85;60.81;101423.72;6060271;23;20003;-71
2021/09/07 09:40:30;;;;;;;14.30;8.52;;;;;;;22.85;61.02;101417.41;6035883;23;20014;-70
2021/09/07 09:43:18;;;;;;;14.95;8.50;;;;;;;22.89;61.24;101410.34;6060869;23;20006;-70
2021/09/07 09:45:43;;;;;;;17.27;9.25;;;;;;;22.90;61.18;101401.06;6060386;23;20014;-71
2021/09/07 09:48:20;;;;;;;18.55;9.05;;;;;;;22.91;61.44;101408.19;6061128;23;20006;-71
2021/09/07 09:50:49;;;;;;;14.38;8.60;;;;;;;22.91;61.55;101406.28;6034262;23;20019;-71
2021/09/07 09:53:15;;;;;;;17.63;8.82;;;;;;;22.94;61.47;101399.47;6035247;23;20022;-71
2021/09/07 09:55:40;;;;;;;15.35;9.35;;;;;;;22.97;61.68;101401.75;6012034;23;20032;-71
2021/09/07 09:58:06;;;;;;;15.38;8.70;;;;;;;22.95;61.33;101396.50;6035639;23;20401;-70
2021/09/07 10:00:31;;;;;;;15.38;9.07;;;;;;;23.00;61.27;101395.81;6060647;23;20055;-71
2021/09/07 10:02:59;;;;;;;17.17;9.82;;;;;;;23.03;61.66;101400.81;6011506;23;20026;-70
2021/09/07 10:05:26;;;;;;;15.25;9.23;;;;;;;23.05;61.44;101398.66;6061073;23;20007;-70
2021/09/07 10:07:51;;;;;;;14.70;8.88;;;;;;;23.03;61.51;101390.66;6035243;23;20010;-71
2021/09/07 10:10:18;;;;;;;14.40;9.57;;;;;;;23.07;61.25;101388.25;6060810;23;20078;-71
2021/09/07 10:12:53;;;;;;;14.90;9.48;;;;;;;23.09;61.55;101380.63;6034994;23;20007;-70
2021/09/07 10:17:49;;;;;;;15.77;9.38;;;;;;;23.16;61.42;101375.84;6035496;23;20090;-70
2021/09/07 10:20:45;;;;;;;13.88;8.93;;;;;;;23.19;61.59;101383.56;6035962;23;20025;-70
2021/09/07 10:23:49;;;;;;;17.05;9.73;;;;;;;23.19;61.59;101374.53;6060093;23;20010;-70
2021/09/07 10:26:03;;;;;;;14.85;9.55;;;;;;;23.23;61.47;101381.16;6035237;23;20529;-71
2021/09/07 10:28:31;;;;;;;15.20;9.35;;;;;;;23.24;61.71;101382.84;6060642;23;20011;-71
2021/09/07 10:31:15;;;;;;;13.52;8.73;;;;;;;23.26;61.54;101375.22;6060112;23;20007;-70
2021/09/07 10:33:47;;;;;;;13.50;9.02;;;;;;;23.28;61.54;101370.28;6035264;23;20440;-71
2021/09/07 10:36:22;;;;;;;16.48;9.48;;;;;;;23.28;61.71;101364.78;6011942;23;20013;-70
2021/09/07 10:38:49;;;;;;;14.95;9.18;;;;;;;23.32;61.63;101362.41;6011480;23;20010;-70
2021/09/07 10:41:36;;;;;;;16.33;9.02;;;;;;;23.33;61.69;101356.66;6035696;23;19999;-70
2021/09/07 10:44:10;;;;;;;13.80;9.45;;;;;;;23.35;61.68;101362.75;6060067;23;20007;-70
2021/09/07 10:46:55;;;;;;;15.70;8.95;;;;;;;23.37;61.61;101348.78;6034873;23;20340;-70
2021/09/07 10:49:37;;;;;;;14.77;8.77;;;;;;;23.38;61.66;101355.94;6034940;23;20002;-70
2021/09/07 10:52:05;;;;;;;15.27;9.20;;;;;;;23.39;61.45;101347.47;6060457;23;20035;-70
2021/09/07 10:54:32;;;;;;;14.07;8.48;;;;;;;23.43;61.60;101347.78;6060343;23;20034;-70
2021/09/07 10:56:59;;;;;;;14.10;9.05;;;;;;;23.44;61.61;101343.94;6035265;23;20026;-71
2021/09/07 10:59:44;;;;;;;15.30;9.05;;;;;;;23.45;61.76;101346.47;6035251;23;20433;-70
2021/09/07 11:02:31;;;;;;;14.25;9.20;;;;;;;23.47;61.93;101346.19;6060248;23;20436;-70
2021/09/07 11:04:58;;;;;;;12.93;8.77;;;;;;;23.48;61.57;101343.22;6060355;23;20425;-70
2021/09/07 11:07:41;;;;;;;14.00;8.50;;;;;;;23.49;61.62;101342.13;6011431;23;20010;-70
2021/09/07 11:10:19;;;;;;;13.38;9.35;;;;;;;23.52;61.60;101335.31;6010926;23;20014;-70
2021/09/07 11:13:08;;;;;;;14.95;8.82;;;;;;;23.54;61.75;101332.34;6060269;23;20034;-71
2021/09/07 11:15:37;;;;;;;14.20;8.80;;;;;;;23.55;61.61;101329.34;6035371;23;20007;-70
2021/09/07 11:18:05;;;;;;;13.52;9.07;;;;;;;23.56;61.74;101333.75;6012444;23;20019;-70
2021/09/07 11:20:37;;;;;;;13.40;8.52;;;;;;;23.58;61.71;101317.88;6036927;23;20062;-71
2021/09/07 11:23:16;;;;;;;14.80;9.25;;;;;;;23.59;61.45;101314.03;6062156;23;20070;-71
2021/09/07 11:25:48;;;;;;;14.88;9.02;;;;;;;23.59;61.82;101308.53;6037327;23;20019;-70
2021/09/07 11:28:15;;;;;;;14.47;8.80;;;;;;;23.59;61.85;101303.06;6037398;23;20006;-70